Time;durP1;ratioP1;P1;durP2;ratioP2;P2;SDS_P1;SDS_P2;PMS_P1;PMS_P2;Temp;Humidity;BMP_temperature;BMP_pressure;BME280_temperature;BME280_humidity;BME280_pressure;Samples;Min_cycle;Max_cycle;Signal;HPM_P1;HPM_P2
2022/10/05 00:01:59;;;;;;;;;7.75;7.75;;;;;17.88;62.74;101232.84;4898110;29;46591;-77
2022/10/05 00:04:27;;;;;;;;;7.75;7.75;;;;;17.88;62.70;101228.38;4898067;29;46228;-77
2022/10/05 00:13:36;;;;;;;;;10.50;9.00;;;;;17.82;62.48;101228.09;4897726;29;46155;-77
2022/10/05 00:16:07;;;;;;;;;10.75;9.75;;;;;17.79;62.93;101223.09;4897732;29;45933;-77
2022/10/05 00:18:32;;;;;;;;;11.25;11.25;;;;;17.76;62.65;101226.84;4897543;29;45562;-77
2022/10/05 00:20:58;;;;;;;;;10.00;9.75;;;;;17.75;62.64;101216.41;4898096;29;45597;-77
2022/10/05 00:23:28;;;;;;;;;15.50;12.75;;;;;17.73;62.90;101216.53;4897881;29;46393;-77
2022/10/05 00:25:53;;;;;;;;;10.00;9.75;;;;;17.72;63.02;101222.81;4897657;29;46259;-76
2022/10/05 00:28:29;;;;;;;;;12.75;12.00;;;;;17.68;63.28;101208.19;4897871;29;45583;-76
2022/10/05 00:30:56;;;;;;;;;10.00;9.00;;;;;17.67;63.09;101205.66;4897698;29;45901;-76
2022/10/05 00:33:21;;;;;;;;;11.25;11.00;;;;;17.66;63.43;101196.03;4897580;29;46769;-76
2022/10/05 00:35:47;;;;;;;;;10.25;10.25;;;;;17.63;63.42;101205.13;4897225;29;46064;-76
2022/10/05 00:38:12;;;;;;;;;13.75;13.00;;;;;17.61;63.30;101205.25;4897734;29;45585;-76
2022/10/05 00:41:05;;;;;;;;;13.25;11.75;;;;;17.61;63.49;101201.75;4897585;29;45987;-76
2022/10/05 00:43:49;;;;;;;;;14.00;12.75;;;;;17.58;63.35;101200.19;4897270;29;47747;-76
2022/10/05 00:46:28;;;;;;;;;11.25;10.75;;;;;17.56;63.11;101193.34;4880218;29;46359;-76
2022/10/05 00:49:30;;;;;;;;;14.25;12.75;;;;;17.55;63.42;101183.72;4897224;29;45651;-76
2022/10/05 00:52:08;;;;;;;;;13.00;12.00;;;;;17.52;63.52;101194.63;4887206;29;45666;-76
2022/10/05 00:54:42;;;;;;;;;13.50;12.50;;;;;17.48;63.89;101195.88;4897218;29;45820;-76
2022/10/05 00:57:26;;;;;;;;;12.50;11.50;;;;;17.43;63.53;101196.31;4897006;29;47495;-76
2022/10/05 01:00:06;;;;;;;;;11.00;10.25;;;;;17.39;63.70;101194.03;4897128;29;45767;-76
2022/10/05 01:02:37;;;;;;;;;17.00;14.00;;;;;17.36;63.66;101196.97;4897030;29;45591;-77
2022/10/05 01:05:35;;;;;;;;;13.00;12.00;;;;;17.32;63.57;101196.44;4897192;29;46829;-76
2022/10/05 01:12:05;;;;;;;;;13.25;12.50;;;;;17.28;63.86;101197.66;4838870;29;45607;-77
2022/10/05 01:14:43;;;;;;;;;16.50;14.25;;;;;17.27;64.16;101197.81;4837884;29;45645;-76
2022/10/05 01:17:19;;;;;;;;;13.25;12.00;;;;;17.26;64.24;101202.28;4839069;29;46529;-76
2022/10/05 01:20:06;;;;;;;;;13.25;12.25;;;;;17.24;64.25;101190.97;4838896;29;46042;-77
2022/10/05 01:22:34;;;;;;;;;10.75;10.75;;;;;17.22;64.22;101195.56;4838879;29;45701;-77
2022/10/05 01:28:28;;;;;;;;;12.75;11.00;;;;;17.18;63.84;101197.66;4838540;29;45728;-76
2022/10/05 01:30:56;;;;;;;;;10.75;10.25;;;;;17.19;64.09;101199.34;4841948;29;45794;-76
2022/10/05 01:33:32;;;;;;;;;12.50;11.00;;;;;17.19;63.91;101196.69;4842055;29;45570;-76
2022/10/05 01:36:33;;;;;;;;;10.75;9.50;;;;;17.20;64.25;101186.94;4842050;29;45623;-77
2022/10/05 01:39:17;;;;;;;;;12.25;11.00;;;;;17.19;64.16;101185.25;4826170;29;46554;-77
2022/10/05 01:42:02;;;;;;;;;12.50;11.00;;;;;17.20;64.30;101187.78;4841715;29;46180;-77
2022/10/05 01:44:42;;;;;;;;;9.50;9.25;;;;;17.17;63.96;101169.50;4853911;29;45828;-76
2022/10/05 01:47:18;;;;;;;;;11.00;10.00;;;;;17.18;64.17;101176.47;4900582;29;45748;-77
2022/10/05 01:49:53;;;;;;;;;9.75;9.25;;;;;17.20;63.92;101177.19;4898760;29;46535;-77
2022/10/05 01:52:34;;;;;;;;;11.00;10.00;;;;;17.22;64.05;101174.38;4882874;29;47226;-77
2022/10/05 01:55:00;;;;;;;;;12.25;10.50;;;;;17.23;64.07;101175.22;4899897;29;45710;-77
2022/10/05 01:57:28;;;;;;;;;10.00;10.00;;;;;17.23;63.82;101170.75;4899798;29;45651;-77
2022/10/05 02:00:07;;;;;;;;;9.75;9.00;;;;;17.23;63.83;101165.47;4900008;29;45867;-77
2022/10/05 02:02:38;;;;;;;;;9.00;8.75;;;;;17.22;64.23;101161.13;4899856;29;45532;-77
2022/10/05 02:05:03;;;;;;;;;9.25;9.00;;;;;17.24;64.15;101171.59;4899922;29;45605;-77
2022/10/05 02:07:38;;;;;;;;;9.50;9.00;;;;;17.23;63.85;101152.22;4900092;29;45618;-77
2022/10/05 02:10:07;;;;;;;;;8.75;8.00;;;;;17.23;64.13;101161.97;4899808;29;46381;-77
2022/10/05 02:12:37;;;;;;;;;8.00;8.00;;;;;17.22;63.94;101153.19;4899794;29;45760;-77
2022/10/05 02:15:12;;;;;;;;;8.00;7.50;;;;;17.23;64.06;101148.72;4899442;29;45557;-77
2022/10/05 02:17:44;;;;;;;;;7.75;6.75;;;;;17.21;63.64;101154.19;4900065;29;45624;-77
2022/10/05 02:20:13;;;;;;;;;8.00;7.00;;;;;17.21;63.91;101151.53;4899996;29;45747;-77
2022/10/05 02:22:46;;;;;;;;;8.00;8.00;;;;;17.23;63.79;101148.72;4882438;29;47819;-77
2022/10/05 02:25:15;;;;;;;;;9.25;7.50;;;;;17.22;63.67;101136.47;4899214;29;45615;-77
2022/10/05 02:27:50;;;;;;;;;7.25;7.00;;;;;17.21;63.52;101135.66;4899943;29;45525;-77
2022/10/05 02:30:18;;;;;;;;;6.75;6.50;;;;;17.20;63.78;101137.44;4899329;29;46504;-77
2022/10/05 02:32:55;;;;;;;;;7.00;6.75;;;;;17.18;63.82;101135.91;4900000;29;46073;-77
2022/10/05 02:35:21;;;;;;;;;7.00;6.25;;;;;17.17;63.21;101129.78;4881993;29;45679;-77
2022/10/05 02:37:56;;;;;;;;;7.75;5.25;;;;;17.16;63.33;101127.28;4899738;29;45588;-77
2022/10/05 02:40:27;;;;;;;;;5.00;4.75;;;;;17.15;63.31;101121.16;4882436;29;47484;-77
2022/10/05 02:43:18;;;;;;;;;5.00;5.00;;;;;17.13;63.26;101122.25;4882267;29;47017;-76
2022/10/05 02:46:07;;;;;;;;;6.00;6.00;;;;;17.11;63.42;101126.88;4882359;29;45955;-77
2022/10/05 02:48:42;;;;;;;;;6.25;6.00;;;;;17.08;63.20;101114.72;4899958;29;45579;-76
2022/10/05 02:51:33;;;;;;;;;6.00;6.00;;;;;17.06;63.28;101113.16;4899364;29;47039;-77
2022/10/05 02:57:27;;;;;;;;;5.25;3.75;;;;;17.01;62.97;101110.09;4898675;28;45759;-77
2022/10/05 02:59:55;;;;;;;;;6.00;6.00;;;;;17.00;63.10;101109.28;4899374;29;45624;-77
2022/10/05 03:02:25;;;;;;;;;5.50;5.25;;;;;16.99;63.32;101117.38;4898825;29;47121;-77
2022/10/05 03:05:09;;;;;;;;;6.25;6.25;;;;;16.97;63.25;101114.84;4898722;29;45821;-77
2022/10/05 03:07:48;;;;;;;;;5.00;5.00;;;;;16.96;63.31;101122.91;4898786;29;45768;-77
2022/10/05 03:13:38;;;;;;;;;5.75;5.75;;;;;16.94;63.06;101116.94;4898538;29;45594;-77
2022/10/05 03:16:15;;;;;;;;;7.00;6.50;;;;;16.93;63.33;101109.97;4898646;29;46885;-77
2022/10/05 03:18:56;;;;;;;;;6.00;6.00;;;;;16.89;63.00;101109.41;4881736;29;45516;-77
2022/10/05 03:21:46;;;;;;;;;6.75;6.75;;;;;16.91;62.95;101111.91;4899015;29;45727;-77
2022/10/05 03:24:30;;;;;;;;;6.00;5.00;;;;;16.90;63.05;101104.94;4898653;29;45576;-78
2022/10/05 03:27:13;;;;;;;;;6.00;6.00;;;;;16.87;63.38;101092.81;4881594;29;48351;-78
2022/10/05 03:29:57;;;;;;;;;5.00;5.00;;;;;16.87;63.38;101100.78;4867665;29;45686;-79
2022/10/05 03:32:41;;;;;;;;;5.00;5.00;;;;;16.86;63.15;101091.16;4881597;29;45932;-79
2022/10/05 03:35:24;;;;;;;;;7.00;6.00;;;;;16.84;62.98;101092.28;4898649;29;46926;-79
2022/10/05 03:37:56;;;;;;;;;5.00;4.25;;;;;16.83;63.16;101085.31;4898527;29;46180;-77
2022/10/05 03:40:38;;;;;;;;;6.75;5.50;;;;;16.81;63.13;101087.25;4898640;29;45868;-78
2022/10/05 03:43:22;;;;;;;;;7.50;7.25;;;;;16.79;62.82;101093.50;4898586;29;45968;-76
2022/10/05 03:45:56;;;;;;;;;6.25;6.25;;;;;16.75;62.92;101085.97;4898805;29;45694;-76
2022/10/05 03:48:35;;;;;;;;;4.00;4.00;;;;;16.73;62.80;101088.75;4899522;29;45727;-76
2022/10/05 03:51:03;;;;;;;;;6.00;6.00;;;;;16.71;62.98;101087.22;4898846;29;45719;-77
2022/10/05 03:53:39;;;;;;;;;5.25;4.75;;;;;16.67;63.07;101072.63;4897845;29;45815;-78
2022/10/05 03:56:22;;;;;;;;;6.00;5.25;;;;;16.66;63.28;101087.66;4897793;28;47580;-78
2022/10/05 03:59:21;;;;;;;;;6.25;6.00;;;;;16.62;63.33;101086.25;4898072;29;46529;-78
2022/10/05 04:01:54;;;;;;;;;4.75;4.75;;;;;16.59;62.99;101075.94;4897803;29;45676;-78
2022/10/05 04:04:30;;;;;;;;;5.50;5.25;;;;;16.58;63.53;101086.59;4898634;29;45611;-78
2022/10/05 04:06:58;;;;;;;;;5.00;5.00;;;;;16.55;63.14;101087.72;4881098;29;47923;-79
2022/10/05 04:12:53;;;;;;;;;5.75;5.75;;;;;16.50;63.36;101082.00;4898663;29;45778;-78
2022/10/05 04:15:31;;;;;;;;;5.50;5.00;;;;;16.49;62.94;101095.38;4898749;29;45658;-78
2022/10/05 04:18:02;;;;;;;;;2.00;1.25;;;;;16.46;63.31;101088.56;4898705;29;46478;-78
2022/10/05 04:20:45;;;;;;;;;5.75;5.00;;;;;16.43;63.21;101091.44;4898000;29;47168;-79
2022/10/05 04:23:23;;;;;;;;;5.00;5.00;;;;;16.37;63.49;101079.59;4897322;29;45694;-78
2022/10/05 04:29:19;;;;;;;;;4.00;4.00;;;;;16.34;63.84;101081.69;4898006;29;46173;-78
2022/10/05 04:32:06;;;;;;;;;5.00;5.00;;;;;16.30;63.52;101077.66;4898237;29;46568;-79
2022/10/05 04:34:47;;;;;;;;;6.00;5.00;;;;;16.27;63.55;101077.91;4897852;29;45761;-78
2022/10/05 04:37:42;;;;;;;;;6.00;5.25;;;;;16.24;63.63;101079.00;4882050;29;45610;-78
2022/10/05 04:40:26;;;;;;;;;5.50;5.50;;;;;16.21;63.76;101078.41;4899016;29;45849;-79
2022/10/05 04:43:14;;;;;;;;;5.50;5.00;;;;;16.17;63.75;101079.66;4899937;29;45630;-77
2022/10/05 04:45:57;;;;;;;;;6.00;5.25;;;;;16.13;63.91;101072.97;4898582;29;45696;-77
2022/10/05 04:48:44;;;;;;;;;4.00;3.75;;;;;16.12;63.73;101066.03;4898569;29;45631;-77
2022/10/05 04:51:27;;;;;;;;;5.00;5.00;;;;;16.08;64.03;101069.91;4898785;29;46612;-78
2022/10/05 04:54:09;;;;;;;;;4.50;4.50;;;;;16.05;64.09;101060.41;4898305;29;46366;-79
2022/10/05 04:56:51;;;;;;;;;5.75;4.75;;;;;16.02;63.68;101062.50;4898160;29;45639;-79
2022/10/05 05:00:01;;;;;;;;;6.00;5.00;;;;;16.01;64.20;101066.09;4898207;29;45485;-77
2022/10/05 05:02:45;;;;;;;;;5.50;5.25;;;;;15.99;64.17;101057.47;4857864;29;45844;-79
2022/10/05 05:05:22;;;;;;;;;6.00;6.00;;;;;15.95;64.39;101057.75;4861152;29;46552;-77
2022/10/05 05:08:09;;;;;;;;;6.00;5.00;;;;;15.91;64.21;101051.06;4861031;29;45743;-77
2022/10/05 05:14:27;;;;;;;;;7.00;6.25;;;;;15.88;64.64;101047.81;4860805;29;45883;-77
2022/10/05 05:17:13;;;;;;;;;7.00;6.75;;;;;15.85;64.44;101048.94;4860951;29;46242;-77
2022/10/05 05:20:17;;;;;;;;;7.25;7.00;;;;;15.83;64.50;101048.22;4861191;29;45864;-77
2022/10/05 05:23:17;;;;;;;;;7.00;7.00;;;;;15.81;64.54;101051.97;4861066;29;45862;-77
2022/10/05 05:29:15;;;;;;;;;7.25;6.00;;;;;15.74;64.41;101046.38;4860783;29;45798;-77
2022/10/05 05:31:47;;;;;;;;;8.00;8.00;;;;;15.73;64.39;101043.84;4860494;29;45955;-79
2022/10/05 05:34:43;;;;;;;;;6.00;5.75;;;;;15.70;64.55;101041.50;4896083;29;45874;-78
2022/10/05 05:37:12;;;;;;;;;7.25;6.50;;;;;15.66;64.60;101038.25;4882696;29;46574;-78
2022/10/05 05:39:46;;;;;;;;;9.00;8.25;;;;;15.65;64.92;101035.78;4900204;29;46069;-78
2022/10/05 05:45:41;;;;;;;;;6.50;5.75;;;;;15.60;64.94;101037.97;4899588;29;45591;-71
2022/10/05 05:48:27;;;;;;;;;6.75;6.00;;;;;15.58;64.94;101032.81;4899936;29;47481;-73
2022/10/05 05:51:08;;;;;;;;;7.00;6.75;;;;;15.58;64.96;101030.16;4899398;28;46309;-73
2022/10/05 05:53:41;;;;;;;;;7.00;6.00;;;;;15.57;65.14;101030.28;4899607;29;45508;-74
2022/10/05 05:56:11;;;;;;;;;7.75;7.75;;;;;15.58;65.05;101037.25;4901025;28;45636;-73
2022/10/05 05:58:36;;;;;;;;;8.00;8.00;;;;;15.56;65.02;101034.72;4900534;29;45752;-74
2022/10/05 06:01:21;;;;;;;;;0.25;0.00;;;;;15.57;65.01;101040.84;4899493;29;47118;-73
2022/10/05 06:03:55;;;;;;;;;8.00;7.25;;;;;15.55;65.28;101040.16;4899493;29;45724;-72
2022/10/05 06:06:25;;;;;;;;;8.00;7.25;;;;;15.53;65.19;101040.28;4899758;29;45498;-72
2022/10/05 06:08:55;;;;;;;;;5.75;5.50;;;;;15.51;65.04;101043.03;4899770;29;45638;-75
2022/10/05 06:11:39;;;;;;;;;6.00;6.00;;;;;15.50;65.00;101037.84;4899760;29;45639;-75
2022/10/05 06:14:14;;;;;;;;;7.75;6.00;;;;;15.49;65.40;101036.22;4899112;29;45620;-76
2022/10/05 06:16:46;;;;;;;;;6.25;5.00;;;;;15.49;65.33;101034.38;4899383;29;45732;-74
2022/10/05 06:19:18;;;;;;;;;7.75;7.00;;;;;15.48;65.23;101031.88;4898917;29;46582;-75
2022/10/05 06:21:49;;;;;;;;;6.50;6.00;;;;;15.46;65.33;101039.94;4897435;29;48189;-77
2022/10/05 06:24:22;;;;;;;;;7.00;6.00;;;;;15.46;65.38;101042.56;4896856;29;45533;-76
2022/10/05 06:27:12;;;;;;;;;8.75;6.00;;;;;15.45;65.12;101032.97;4881439;29;45965;-77
2022/10/05 06:29:57;;;;;;;;;6.00;5.75;;;;;15.45;65.31;101043.53;4898411;29;46556;-75
2022/10/05 06:32:30;;;;;;;;;5.50;5.00;;;;;15.44;65.35;101044.50;4898570;29;46234;-75
2022/10/05 06:35:11;;;;;;;;;7.00;6.75;;;;;15.41;65.19;101036.84;4881369;29;45659;-75
2022/10/05 06:37:54;;;;;;;;;7.00;6.50;;;;;15.41;65.37;101039.47;4881411;29;45551;-75
2022/10/05 06:44:00;;;;;;;;;50.50;42.00;;;;;15.40;65.17;101035.16;4858467;29;46231;-76
2022/10/05 06:46:35;;;;;;;;;7.75;6.00;;;;;15.40;65.47;101037.81;4858756;29;45825;-76
2022/10/05 06:49:23;;;;;;;;;5.75;5.75;;;;;15.41;65.31;101036.84;4858852;29;45740;-73
2022/10/05 06:52:17;;;;;;;;;9.75;8.00;;;;;15.41;65.34;101042.13;4858626;29;46396;-75
2022/10/05 06:54:54;;;;;;;;;5.25;5.25;;;;;15.42;65.13;101035.03;4857091;29;46393;-73
2022/10/05 06:57:38;;;;;;;;;6.00;6.00;;;;;15.43;65.16;101031.44;4856642;29;45869;-75
2022/10/05 07:00:06;;;;;;;;;8.25;7.00;;;;;15.44;65.27;101031.28;4857848;29;45883;-74
2022/10/05 07:03:09;;;;;;;;;11.00;10.00;;;;;15.44;65.30;101028.66;4858110;29;45641;-77
2022/10/05 07:05:55;;;;;;;;;7.75;6.75;;;;;15.45;65.46;101026.84;4821243;29;46297;-75
2022/10/05 07:08:42;;;;;;;;;6.00;6.00;;;;;15.46;65.42;101031.16;4805733;29;45754;-73
2022/10/05 07:15:11;;;;;;;;;11.00;10.25;;;;;15.45;65.69;101040.88;4820087;29;45752;-74
2022/10/05 07:17:48;;;;;;;;;8.50;7.75;;;;;15.46;65.46;101044.38;4765975;29;46135;-73
2022/10/05 07:20:23;;;;;;;;;8.50;7.25;;;;;15.46;65.58;101047.84;4780115;29;46826;-72
2022/10/05 07:23:27;;;;;;;;;7.50;7.00;;;;;15.46;65.79;101045.22;4802694;29;45706;-77
2022/10/05 07:26:13;;;;;;;;;7.00;7.00;;;;;15.48;65.90;101053.00;4801591;29;45729;-75
2022/10/05 07:29:06;;;;;;;;;7.75;7.50;;;;;15.48;65.85;101055.66;4800782;29;45647;-75
2022/10/05 07:32:02;;;;;;;;;7.75;7.25;;;;;15.49;65.99;101054.69;4803175;29;45706;-73
2022/10/05 07:34:44;;;;;;;;;7.25;7.25;;;;;15.51;66.14;101055.38;4803152;29;45849;-74
2022/10/05 07:40:16;;;;;;;;;10.00;9.00;;;;;15.52;65.86;101063.22;4803100;29;45861;-76
2022/10/05 07:42:58;;;;;;;;;8.75;8.00;;;;;15.55;66.25;101063.94;4833919;29;45802;-74
2022/10/05 07:45:44;;;;;;;;;8.00;8.00;;;;;15.55;66.27;101064.75;4840145;29;45824;-75
2022/10/05 07:48:25;;;;;;;;;10.50;10.00;;;;;15.56;66.27;101070.88;5001099;27;46079;-74
2022/10/05 07:51:21;;;;;;;;;9.00;8.50;;;;;15.58;66.23;101074.22;4984752;28;45716;-73
2022/10/05 07:54:18;;;;;;;;;11.25;10.50;;;;;15.60;66.39;101083.69;4979892;27;45688;-76
2022/10/05 07:56:48;;;;;;;;;9.00;8.50;;;;;15.62;66.27;101078.28;4981048;28;46508;-77
2022/10/05 07:59:37;;;;;;;;;9.25;9.00;;;;;15.65;66.67;101075.38;4977845;27;47203;-75
2022/10/05 08:02:31;;;;;;;;;7.00;7.00;;;;;15.68;66.78;101075.97;4974554;27;45819;-74
2022/10/05 08:05:28;;;;;;;;;11.50;9.25;;;;;15.69;67.00;101077.63;4980427;27;45584;-75
2022/10/05 08:08:24;;;;;;;;;9.00;8.00;;;;;15.73;66.73;101078.19;4975014;27;48713;-75
2022/10/05 08:11:07;;;;;;;;;7.00;7.00;;;;;15.76;66.93;101077.97;4979877;28;46471;-77
2022/10/05 08:13:53;;;;;;;;;6.00;6.00;;;;;15.79;66.96;101077.69;4979388;27;45925;-73
2022/10/05 08:16:22;;;;;;;;;6.75;6.75;;;;;15.81;67.15;101079.25;4980280;27;45799;-76
2022/10/05 08:19:02;;;;;;;;;6.00;5.25;;;;;15.84;67.15;101065.75;4981856;27;46732;-76
2022/10/05 08:21:42;;;;;;;;;4.00;4.00;;;;;15.88;67.66;101080.38;4981623;28;46116;-77
2022/10/05 08:24:36;;;;;;;;;6.00;6.00;;;;;15.92;67.55;101067.75;4983295;28;46197;-75
2022/10/05 08:27:24;;;;;;;;;4.50;4.00;;;;;15.95;67.66;101076.25;4983049;27;46132;-75
2022/10/05 08:29:58;;;;;;;;;5.50;5.25;;;;;16.02;67.83;101081.84;4981424;27;47367;-73
2022/10/05 08:32:28;;;;;;;;;5.25;4.50;;;;;16.08;67.69;101091.88;4976388;27;47147;-74
2022/10/05 08:35:00;;;;;;;;;4.25;3.75;;;;;16.14;67.87;101093.16;4982156;28;46415;-73
2022/10/05 08:37:31;;;;;;;;;4.00;4.00;;;;;16.18;67.96;101084.00;5015705;27;46065;-75
2022/10/05 08:40:20;;;;;;;;;1.00;1.00;;;;;16.28;68.08;101084.88;5004289;27;46516;-75
2022/10/05 08:43:01;;;;;;;;;5.50;5.00;;;;;16.37;68.23;101086.69;4998919;27;47502;-75
2022/10/05 08:45:51;;;;;;;;;5.50;5.00;;;;;16.47;68.15;101082.25;4982734;27;45801;-78
2022/10/05 08:48:49;;;;;;;;;3.50;3.50;;;;;16.57;67.76;101085.75;4981334;28;45656;-74
2022/10/05 08:51:14;;;;;;;;;6.50;6.00;;;;;16.65;67.56;101091.25;4978788;27;47742;-75
2022/10/05 08:54:21;;;;;;;;;5.00;4.50;;;;;16.74;67.60;101081.66;4989577;27;47011;-74
2022/10/05 08:56:49;;;;;;;;;4.00;4.00;;;;;16.81;67.37;101084.59;4974669;27;45856;-73
2022/10/05 08:59:44;;;;;;;;;6.00;5.00;;;;;16.91;67.47;101098.66;4972755;28;45658;-75
2022/10/05 09:02:28;;;;;;;;;5.75;4.75;;;;;16.97;67.65;101096.31;4998528;28;47951;-73
2022/10/05 09:05:09;;;;;;;;;5.50;4.75;;;;;17.03;67.20;101103.72;4984641;27;47532;-72
2022/10/05 09:08:01;;;;;;;;;5.00;5.00;;;;;17.10;67.18;101098.72;4997666;28;45487;-77
2022/10/05 09:11:17;;;;;;;;;5.00;4.25;;;;;17.16;66.90;101096.34;4965047;28;45720;-74
2022/10/05 09:13:57;;;;;;;;;4.75;4.75;;;;;17.24;66.67;101089.50;4957044;28;46207;-72
2022/10/05 09:16:47;;;;;;;;;8.25;6.25;;;;;17.30;66.66;101100.38;5023808;28;46397;-75
2022/10/05 09:19:43;;;;;;;;;6.50;6.00;;;;;17.38;66.80;101089.91;4962406;28;45696;-75
2022/10/05 09:22:45;;;;;;;;;5.25;5.25;;;;;17.45;66.73;101100.75;4949672;28;45679;-80
2022/10/05 09:25:24;;;;;;;;;5.25;5.00;;;;;17.53;66.42;101098.25;4962968;28;45843;-74
2022/10/05 09:27:57;;;;;;;;;4.75;4.75;;;;;17.61;65.84;101091.28;4959018;28;47557;-74
2022/10/05 09:30:38;;;;;;;;;5.25;5.00;;;;;17.67;65.75;101091.69;4963652;28;46256;-76
2022/10/05 09:33:15;;;;;;;;;5.00;5.00;;;;;17.75;65.36;101099.78;4998816;28;45784;-77
2022/10/05 09:36:05;;;;;;;;;7.00;5.25;;;;;17.81;65.56;101112.47;4958797;28;46780;-74
2022/10/05 09:39:04;;;;;;;;;6.00;5.00;;;;;17.84;65.25;101105.06;4964834;28;46225;-74
2022/10/05 09:41:39;;;;;;;;;5.75;5.00;;;;;17.88;65.26;101095.00;4963542;28;46030;-73
2022/10/05 09:44:07;;;;;;;;;4.50;4.00;;;;;17.91;65.20;101113.28;4948831;28;45762;-80
2022/10/05 09:46:44;;;;;;;;;6.00;6.00;;;;;17.94;64.77;101105.03;4960420;28;45748;-76
2022/10/05 09:49:45;;;;;;;;;4.00;4.00;;;;;17.98;64.32;101112.53;4966819;28;46975;-78
2022/10/05 09:52:38;;;;;;;;;4.00;4.00;;;;;18.01;64.16;101101.66;4971477;28;45535;-81
2022/10/05 09:55:15;;;;;;;;;5.25;5.00;;;;;18.06;64.11;101103.03;4972801;28;45859;-75
2022/10/05 10:01:25;;;;;;;;;5.00;5.00;;;;;18.13;63.91;101098.84;4972847;28;46022;-72
2022/10/05 10:04:15;;;;;;;;;6.00;6.00;;;;;18.20;63.47;101105.19;4972679;28;45525;-73
2022/10/05 10:07:07;;;;;;;;;5.00;5.00;;;;;18.24;63.44;101109.25;4971421;28;45715;-76
2022/10/05 10:10:20;;;;;;;;;5.00;5.00;;;;;18.27;62.67;101109.78;4971998;28;47141;-75
2022/10/05 10:13:15;;;;;;;;;4.00;3.00;;;;;18.30;62.42;101109.47;4971159;28;47779;-73
2022/10/05 10:16:10;;;;;;;;;3.75;3.00;;;;;18.32;62.18;101096.94;4931052;28;45746;-75
2022/10/05 10:18:42;;;;;;;;;3.00;3.00;;;;;18.33;61.76;101109.22;4931179;28;45536;-74
2022/10/05 10:21:35;;;;;;;;;3.00;2.00;;;;;18.33;61.37;101106.56;4932869;28;47292;-75
2022/10/05 10:24:36;;;;;;;;;2.00;2.00;;;;;18.27;60.88;101096.53;4931626;28;46170;-74
2022/10/05 10:27:27;;;;;;;;;3.75;3.00;;;;;18.27;60.67;101088.56;4931450;28;45745;-77
2022/10/05 10:30:17;;;;;;;;;2.75;2.75;;;;;18.27;60.45;101090.38;4931974;28;45898;-76
2022/10/05 10:33:39;;;;;;;;;3.00;2.75;;;;;18.24;60.09;101080.91;4931889;28;48741;-75
2022/10/05 10:36:25;;;;;;;;;2.75;2.75;;;;;18.25;59.72;101095.00;4893684;29;46030;-75
2022/10/05 10:39:16;;;;;;;;;2.00;2.00;;;;;18.24;60.19;101101.31;4893404;29;45646;-74
2022/10/05 10:42:14;;;;;;;;;4.00;3.00;;;;;18.23;60.05;101095.16;4893888;29;45822;-76
2022/10/05 10:48:02;;;;;;;;;2.00;2.00;;;;;18.34;59.94;101092.31;4950191;28;45662;-77
2022/10/05 10:50:36;;;;;;;;;3.25;3.00;;;;;18.38;59.34;101072.47;4953910;28;45586;-73
2022/10/05 10:53:19;;;;;;;;;4.75;3.00;;;;;18.43;59.46;101091.44;4987654;28;46012;-74
2022/10/05 10:56:16;;;;;;;;;3.50;3.50;;;;;18.48;59.46;101079.53;4992736;28;45909;-75
2022/10/05 11:02:36;;;;;;;;;3.25;2.25;;;;;18.52;59.40;101065.81;4991771;28;45714;-75
2022/10/05 11:05:20;;;;;;;;;3.00;2.25;;;;;18.55;59.04;101070.03;4991885;28;45615;-75
2022/10/05 11:08:06;;;;;;;;;2.00;2.00;;;;;18.56;59.26;101067.22;5030589;27;46454;-74
2022/10/05 11:10:57;;;;;;;;;4.00;3.50;;;;;18.56;59.32;101056.63;5031216;28;46981;-73
2022/10/05 11:20:16;;;;;;;;;2.25;2.25;;;;;18.63;59.75;101040.91;5032228;28;46067;-78
2022/10/05 11:22:55;;;;;;;;;4.25;3.50;;;;;18.65;59.34;101042.44;4973412;28;47090;-81
2022/10/05 11:25:45;;;;;;;;;4.00;3.00;;;;;18.69;59.46;101051.75;4975480;28;45654;-77
2022/10/05 11:31:43;;;;;;;;;2.75;2.00;;;;;18.74;58.72;101008.81;4971810;28;45513;-78
2022/10/05 11:34:11;;;;;;;;;3.00;2.25;;;;;18.75;59.17;101016.66;4972250;28;46204;-77
2022/10/05 11:37:04;;;;;;;;;3.00;2.00;;;;;18.80;59.22;101017.03;4972249;28;45649;-76
2022/10/05 11:39:42;;;;;;;;;2.75;2.25;;;;;18.83;58.91;101022.06;4971802;28;45606;-78
2022/10/05 11:42:20;;;;;;;;;2.25;2.00;;;;;18.90;59.01;101035.53;4971530;28;47020;-75
2022/10/05 11:48:48;;;;;;;;;3.00;2.25;;;;;19.04;58.77;101036.81;4968224;28;45900;-76
2022/10/05 11:51:20;;;;;;;;;2.25;2.25;;;;;19.09;59.07;101030.06;4971566;28;45630;-78
2022/10/05 11:54:16;;;;;;;;;4.00;3.00;;;;;19.13;59.06;101036.72;4970844;28;47904;-78
2022/10/05 11:56:50;;;;;;;;;3.00;2.50;;;;;19.20;58.93;101016.53;4971704;28;46070;-75
2022/10/05 12:03:08;;;;;;;;;2.50;2.00;;;;;19.33;58.97;101023.25;4972301;28;45541;-74
2022/10/05 12:05:56;;;;;;;;;2.75;2.75;;;;;19.39;58.86;101015.50;4971242;28;45825;-78
2022/10/05 12:08:24;;;;;;;;;3.00;2.50;;;;;19.44;58.60;101023.84;4970949;28;47286;-78
2022/10/05 12:11:02;;;;;;;;;3.25;3.00;;;;;19.49;58.31;101024.22;4971171;28;45658;-74
2022/10/05 12:13:30;;;;;;;;;3.75;3.75;;;;;19.55;58.40;101012.13;4971229;28;45496;-73
2022/10/05 12:19:28;;;;;;;;;3.75;3.25;;;;;19.67;58.39;101017.03;4970966;28;45642;-77
2022/10/05 12:22:14;;;;;;;;;3.00;3.00;;;;;19.73;58.82;101018.25;4971490;28;45547;-76
2022/10/05 12:25:01;;;;;;;;;4.00;4.00;;;;;19.81;58.55;101006.81;4970945;28;45852;-74
2022/10/05 12:27:40;;;;;;;;;3.00;2.00;;;;;19.91;58.22;101015.50;4970711;28;46685;-77
2022/10/05 12:30:11;;;;;;;;;3.00;3.00;;;;;19.96;58.34;101011.38;4971007;28;45869;-74
2022/10/05 12:32:52;;;;;;;;;2.00;2.00;;;;;20.05;58.26;101013.06;4970674;28;45601;-72
2022/10/05 12:35:54;;;;;;;;;4.50;3.75;;;;;20.17;58.21;101015.44;4974410;28;45527;-73
2022/10/05 12:38:32;;;;;;;;;3.00;3.00;;;;;20.28;57.72;101002.69;4974065;28;45642;-73
2022/10/05 12:41:20;;;;;;;;;2.50;2.00;;;;;20.38;57.75;101021.19;4974062;28;46231;-76
2022/10/05 12:43:53;;;;;;;;;3.50;2.50;;;;;20.46;57.33;101006.06;4933116;28;45751;-74
2022/10/05 12:46:40;;;;;;;;;3.00;3.00;;;;;20.54;57.17;101002.59;4933031;28;45802;-77
2022/10/05 12:49:40;;;;;;;;;4.00;3.00;;;;;20.62;57.14;101002.59;4934266;28;47637;-79
2022/10/05 12:52:23;;;;;;;;;3.00;3.00;;;;;20.68;56.57;100985.97;4894635;28;47171;-72
2022/10/05 12:54:59;;;;;;;;;2.25;2.00;;;;;20.75;56.77;100991.47;4894555;29;45792;-72
2022/10/05 12:58:04;;;;;;;;;3.50;2.50;;;;;20.82;56.61;100998.66;4894924;29;45811;-76
2022/10/05 13:00:35;;;;;;;;;2.75;2.75;;;;;20.85;56.25;100995.63;4955117;28;47412;-80
2022/10/05 13:03:15;;;;;;;;;3.50;2.75;;;;;20.92;56.08;101006.47;4955897;28;45879;-80
2022/10/05 13:05:55;;;;;;;;;2.50;2.50;;;;;20.99;55.96;101002.16;4955583;28;45982;-76
2022/10/05 13:08:47;;;;;;;;;2.50;2.50;;;;;21.09;55.05;101023.28;4955188;28;45653;-77
2022/10/05 13:11:16;;;;;;;;;3.50;3.00;;;;;21.11;55.03;101016.78;4955163;28;45641;-75
2022/10/05 13:13:56;;;;;;;;;0.50;0.00;;;;;21.14;54.63;101028.94;4954708;28;47631;-76
2022/10/05 13:16:39;;;;;;;;;4.00;4.00;;;;;21.16;54.66;101029.66;4954803;28;45585;-72
2022/10/05 13:19:40;;;;;;;;;4.25;2.25;;;;;21.14;54.53;101023.63;4955308;28;45654;-75
2022/10/05 13:22:05;;;;;;;;;4.00;3.00;;;;;21.16;54.32;101022.47;4954691;28;46504;-75
2022/10/05 13:24:59;;;;;;;;;4.50;3.25;;;;;21.24;54.45;101021.66;4954796;28;46181;-73
2022/10/05 13:27:35;;;;;;;;;3.00;3.00;;;;;21.30;54.48;101021.81;4916308;28;45575;-73
2022/10/05 13:33:31;;;;;;;;;4.00;3.50;;;;;21.37;54.24;101027.31;4935112;28;46061;-73
2022/10/05 13:36:06;;;;;;;;;3.50;3.50;;;;;21.43;54.47;101031.13;4938591;28;46332;-72
2022/10/05 13:39:06;;;;;;;;;4.50;4.50;;;;;21.45;53.85;101040.63;4954584;28;45646;-72
2022/10/05 13:41:50;;;;;;;;;3.00;3.00;;;;;21.48;53.76;101039.47;4941689;28;45784;-73
2022/10/05 13:44:34;;;;;;;;;5.00;3.00;;;;;21.49;54.06;101033.94;4954242;28;47347;-75
2022/10/05 13:50:49;;;;;;;;;5.00;3.75;;;;;21.54;53.72;101047.59;4952898;28;45642;-74
2022/10/05 13:53:22;;;;;;;;;5.00;4.00;;;;;21.56;54.08;101036.75;4954888;28;45759;-76